Pagrindinis puslapis
METAR-TAF:

METAR-TAF

Oro uostai :

Lechfeld, Vokietija

platuma: 48-11N, ilguma: 010-52E, Aukštis: 555 m

Dabartinis oras

Ataskaita buvo paskelbta 1 valandą ir 19 minutes, ne 09:20 UTC
Vėjas 9 kt iš Šiaurės Rytų
Temperatūra 11°C
Drėgmė 62%
Slėgis 1028 hPa
Matomumas 10 km arba daugiau
Su prošvaistėmis ne aukštis 27000 ft

METAR: ETSL 200920Z 04009KT 9999 BKN270 11/04 Q1028 BLACKBLU+

Laikas: 12:39 (10:39 UTC)


TAF: trūkstamas

Orai ataskaitas ir orų prognozės (METAR, TAF).

turimą stotys yra geltonos ir raudonos taškus žemėlapyje.

Perkelti pele per norėdami pamatyti stoties vardą.

Tada spustelėkite, norėdami matyti oro stebėjimo ir prognozės.

Norėdami pakeisti žemėlapį: spustelėkite ant žalios mygtukų su juodo kryžiaus žemyn,; žalią mygtuką su brūkšneliu, jei norite nutolinti; arba žalių rodyklių gretimoms žemėlapius.


METAR-TAF: